createdAt,value
2022-10-17T00:03:57.351Z,0
2022-10-17T00:09:09.581Z,0
2022-10-17T00:14:21.907Z,0
2022-10-17T00:19:34.329Z,0
2022-10-17T00:24:46.621Z,0
2022-10-17T00:29:58.925Z,0
2022-10-17T00:35:11.608Z,0
2022-10-17T00:40:24.156Z,0
2022-10-17T00:45:36.360Z,0
2022-10-17T00:50:48.601Z,0
2022-10-17T00:56:01.119Z,0
2022-10-17T01:01:13.611Z,0
2022-10-17T01:06:25.754Z,0
2022-10-17T01:11:38.208Z,0
2022-10-17T01:16:50.597Z,0
2022-10-17T01:22:03.007Z,0
2022-10-17T01:27:15.370Z,0
2022-10-17T01:32:27.807Z,0
2022-10-17T01:37:40.130Z,0
2022-10-17T01:42:52.463Z,0
2022-10-17T01:48:04.710Z,0
2022-10-17T01:53:16.978Z,0
2022-10-17T01:58:29.222Z,0
2022-10-17T02:03:41.523Z,0
2022-10-17T02:08:53.887Z,0
2022-10-17T02:19:18.479Z,0
2022-10-17T02:24:30.859Z,0
2022-10-17T02:29:43.245Z,0
2022-10-17T02:34:55.441Z,0
2022-10-17T02:40:07.780Z,0
2022-10-17T02:45:20.137Z,0
2022-10-17T02:50:32.633Z,0
2022-10-17T02:55:44.950Z,0
2022-10-17T03:00:57.386Z,0
2022-10-17T03:06:09.798Z,0
2022-10-17T03:11:21.894Z,0
2022-10-17T03:16:34.368Z,0
2022-10-17T03:21:46.798Z,0
2022-10-17T03:26:58.984Z,0
2022-10-17T03:32:11.296Z,0
2022-10-17T03:37:23.865Z,0
2022-10-17T03:42:36.175Z,0
2022-10-17T03:47:48.295Z,0
2022-10-17T03:53:00.719Z,0
2022-10-17T03:58:13.168Z,0
2022-10-17T04:03:25.584Z,0
2022-10-17T04:08:37.975Z,0
2022-10-17T04:13:50.060Z,0
2022-10-17T04:19:03.077Z,0
2022-10-17T04:24:15.272Z,0
2022-10-17T04:29:27.779Z,0
2022-10-17T04:34:40.343Z,0
2022-10-17T04:39:52.641Z,0
2022-10-17T04:45:04.814Z,0
2022-10-17T04:50:17.230Z,0
2022-10-17T04:55:30.014Z,0
2022-10-17T05:00:42.621Z,0
2022-10-17T05:05:55.025Z,0
2022-10-17T05:11:07.405Z,0
2022-10-17T05:16:19.825Z,0
2022-10-17T05:26:44.572Z,1432
2022-10-17T05:31:57.139Z,2640
2022-10-17T05:37:09.221Z,3031
2022-10-17T05:47:33.947Z,4611
2022-10-17T05:52:46.488Z,5076
2022-10-17T05:57:58.510Z,5030
2022-10-17T06:03:10.893Z,5096
2022-10-17T06:08:23.386Z,5133
2022-10-17T06:13:35.703Z,5041
2022-10-17T06:24:00.753Z,5071
2022-10-17T06:29:13.049Z,5129
2022-10-17T06:34:25.367Z,5069
2022-10-17T06:39:37.928Z,5055
2022-10-17T06:44:50.238Z,5032
2022-10-17T06:50:02.600Z,5149
2022-10-17T06:55:16.845Z,5131
2022-10-17T07:00:27.526Z,5112
2022-10-17T07:05:39.706Z,5108
2022-10-17T07:10:52.073Z,5138
2022-10-17T07:16:04.539Z,5135
2022-10-17T07:21:17.199Z,5138
2022-10-17T07:26:29.562Z,5168
2022-10-17T07:31:41.952Z,5200
2022-10-17T07:36:54.310Z,5191
2022-10-17T07:42:06.639Z,5170
2022-10-17T07:47:19.044Z,5202
2022-10-17T07:52:31.723Z,5168
2022-10-17T07:57:44.056Z,5172
2022-10-17T08:02:56.312Z,5172
2022-10-17T08:08:08.644Z,5115
2022-10-17T08:13:21.311Z,5145
2022-10-17T08:18:33.705Z,5147
2022-10-17T08:28:58.442Z,5149
2022-10-17T08:34:10.679Z,5147
2022-10-17T08:39:23.177Z,5142
2022-10-17T08:44:35.537Z,5027
2022-10-17T08:49:48.026Z,5119
2022-10-17T08:55:00.459Z,5188
2022-10-17T09:00:12.820Z,5131
2022-10-17T09:05:26.304Z,5085
2022-10-17T09:10:37.690Z,5165
2022-10-17T09:15:50.198Z,5165
2022-10-17T09:21:02.372Z,5198
2022-10-17T09:26:14.820Z,5202
2022-10-17T09:31:27.296Z,5099
2022-10-17T09:36:39.721Z,5094
2022-10-17T09:41:52.087Z,5087
2022-10-17T09:47:04.569Z,5168
2022-10-17T09:57:47.283Z,5156
2022-10-17T10:02:59.534Z,5230
2022-10-17T10:08:11.959Z,5246
2022-10-17T10:13:24.350Z,5232
2022-10-17T10:18:36.706Z,5225
2022-10-17T10:23:49.012Z,5175
2022-10-17T10:35:29.195Z,5225
2022-10-17T10:45:54.007Z,5248
2022-10-17T10:56:18.740Z,5250
2022-10-17T11:01:30.960Z,5260
2022-10-17T11:06:43.449Z,5227
2022-10-17T11:11:55.898Z,5253
2022-10-17T11:17:08.382Z,5255
2022-10-17T11:22:22.011Z,5255
2022-10-17T11:27:33.619Z,5246
2022-10-17T11:32:46.013Z,5246
2022-10-17T11:37:58.338Z,5255
2022-10-17T11:43:10.749Z,5246
2022-10-17T11:48:23.293Z,5248
2022-10-17T11:53:35.538Z,5260
2022-10-17T11:58:47.918Z,5253
2022-10-17T12:04:00.511Z,5264
2022-10-17T12:09:12.717Z,5273
2022-10-17T12:14:25.190Z,5264
2022-10-17T12:19:37.919Z,5253
2022-10-17T12:24:50.396Z,5269
2022-10-17T12:30:02.702Z,5221
2022-10-17T12:35:15.129Z,5184
2022-10-17T12:40:27.430Z,5131
2022-10-17T12:45:39.833Z,5188
2022-10-17T12:50:52.231Z,5290
2022-10-17T12:56:04.462Z,5267
2022-10-17T13:01:24.004Z,5257
2022-10-17T13:06:29.569Z,5250
2022-10-17T13:11:41.871Z,5237
2022-10-17T13:16:54.233Z,5276
2022-10-17T13:22:07.320Z,5276
2022-10-17T13:27:19.101Z,5285
2022-10-17T13:37:44.231Z,5290
2022-10-17T13:42:56.472Z,5262
2022-10-17T13:48:08.777Z,5292
2022-10-17T13:53:21.211Z,5273
2022-10-17T13:58:33.573Z,5292
2022-10-17T14:03:48.441Z,5294
2022-10-17T14:08:58.146Z,5296
2022-10-17T14:14:10.661Z,5287
2022-10-17T14:19:22.930Z,5290
2022-10-17T14:24:35.721Z,5301
2022-10-17T14:29:47.890Z,5290
2022-10-17T14:35:16.489Z,5301
2022-10-17T14:40:12.369Z,5280
2022-10-17T14:45:24.943Z,5299
2022-10-17T14:50:36.976Z,5285
2022-10-17T14:55:48.972Z,5292
2022-10-17T15:01:01.241Z,5285
2022-10-17T15:06:13.802Z,5267
2022-10-17T15:11:26.092Z,5283
2022-10-17T15:16:38.498Z,5273
2022-10-17T15:21:50.883Z,5278
2022-10-17T15:27:03.884Z,5271
2022-10-17T15:32:16.172Z,5283
2022-10-17T15:37:29.067Z,5253
2022-10-17T15:42:41.484Z,5267
2022-10-17T15:47:53.789Z,5264
2022-10-17T15:53:05.688Z,5269
2022-10-17T15:58:17.881Z,5179
2022-10-17T16:03:30.212Z,4238
2022-10-17T16:08:42.326Z,2691
2022-10-17T16:13:54.745Z,1701
2022-10-17T16:19:07.156Z,956
2022-10-17T16:24:19.721Z,377
2022-10-17T16:29:32.026Z,0
2022-10-17T16:34:44.252Z,0
2022-10-17T16:39:56.693Z,0
2022-10-17T16:45:08.998Z,0
2022-10-17T16:50:21.352Z,0
2022-10-17T16:55:33.744Z,0
2022-10-17T17:00:46.247Z,0
2022-10-17T17:05:58.496Z,0
2022-10-17T17:11:11.168Z,0
2022-10-17T17:16:23.737Z,0
2022-10-17T17:21:35.985Z,0
2022-10-17T17:26:48.287Z,0
2022-10-17T17:32:00.614Z,0
2022-10-17T17:37:13.454Z,0
2022-10-17T17:42:25.674Z,0
2022-10-17T17:47:38.158Z,0
2022-10-17T17:52:50.729Z,0
2022-10-17T17:58:02.943Z,0
2022-10-17T18:03:15.275Z,0
2022-10-17T18:08:27.839Z,0
2022-10-17T18:13:40.256Z,0
2022-10-17T18:18:52.366Z,0
2022-10-17T18:24:04.561Z,0
2022-10-17T18:29:16.803Z,0
2022-10-17T18:34:29.329Z,0
2022-10-17T18:39:41.677Z,0
2022-10-17T18:44:54.053Z,0
2022-10-17T18:50:06.349Z,0
2022-10-17T18:55:19.081Z,0
2022-10-17T19:00:31.851Z,0
2022-10-17T19:05:44.383Z,0
2022-10-17T19:10:56.617Z,0
2022-10-17T19:16:08.937Z,0
2022-10-17T19:21:21.766Z,0
2022-10-17T19:26:33.504Z,0
2022-10-17T19:31:45.928Z,0
2022-10-17T19:36:58.323Z,0
2022-10-17T19:55:05.849Z,0
2022-10-17T20:00:18.149Z,0
2022-10-17T20:05:30.384Z,0
2022-10-17T20:10:42.805Z,0
2022-10-17T20:15:55.072Z,0
2022-10-17T20:21:07.295Z,0
2022-10-17T20:26:37.425Z,0
2022-10-17T20:31:31.994Z,0
2022-10-17T20:36:44.413Z,0
2022-10-17T20:41:56.549Z,0
2022-10-17T20:47:16.094Z,0
2022-10-17T20:52:20.762Z,0
2022-10-17T20:57:33.002Z,0
2022-10-17T21:02:45.198Z,0
2022-10-17T21:07:57.740Z,0
2022-10-17T21:13:09.883Z,0
2022-10-17T21:18:22.065Z,0
2022-10-17T21:23:34.397Z,0
2022-10-17T21:28:47.195Z,0
2022-10-17T21:33:59.298Z,0
2022-10-17T21:39:11.542Z,0
2022-10-17T21:44:23.724Z,0
2022-10-17T21:49:36.099Z,0
2022-10-17T21:54:48.646Z,0
2022-10-17T22:00:01.002Z,0
2022-10-17T22:05:13.208Z,0
2022-10-17T22:10:25.388Z,0
2022-10-17T22:15:37.900Z,0
2022-10-17T22:20:50.169Z,0
2022-10-17T22:31:15.596Z,0
2022-10-17T22:36:27.577Z,0
2022-10-17T22:41:39.909Z,0
2022-10-17T22:46:52.303Z,0
2022-10-17T22:52:04.566Z,0
2022-10-17T22:57:17.040Z,0
2022-10-17T23:02:30.029Z,0
2022-10-17T23:07:41.784Z,0
2022-10-17T23:12:54.346Z,0
2022-10-17T23:18:06.729Z,0
2022-10-17T23:23:19.077Z,0
2022-10-17T23:28:31.480Z,0
2022-10-17T23:33:43.839Z,0
2022-10-17T23:38:57.787Z,0
2022-10-17T23:44:08.657Z,0
2022-10-17T23:49:20.913Z,0
2022-10-17T23:54:33.146Z,0
2022-10-17T23:59:45.533Z,0
